createdAt,value
2022-12-08T00:01:21.934Z,4.53
2022-12-08T00:03:48.888Z,4.10
2022-12-08T00:06:39.131Z,4.07
2022-12-08T00:09:24.237Z,4.23
2022-12-08T00:11:58.134Z,4.23
2022-12-08T00:14:30.380Z,4.00
2022-12-08T00:16:57.945Z,4.33
2022-12-08T00:19:25.330Z,4.60
2022-12-08T00:21:52.718Z,4.47
2022-12-08T00:24:20.054Z,4.40
2022-12-08T00:26:47.626Z,4.20
2022-12-08T00:29:17.536Z,4.43
2022-12-08T00:31:44.549Z,4.00
2022-12-08T00:34:13.411Z,4.30
2022-12-08T00:36:40.567Z,4.50
2022-12-08T00:39:07.274Z,3.57
2022-12-08T00:41:52.277Z,3.90
2022-12-08T00:44:19.303Z,3.20
2022-12-08T00:46:46.662Z,3.77
2022-12-08T00:49:13.783Z,3.50
2022-12-08T00:51:40.414Z,3.53
2022-12-08T00:54:07.333Z,3.83
2022-12-08T00:56:34.660Z,4.10
2022-12-08T00:59:01.664Z,3.90
2022-12-08T01:01:28.374Z,3.90
2022-12-08T01:03:55.027Z,4.03
2022-12-08T01:06:21.656Z,4.20
2022-12-08T01:08:48.383Z,3.60
2022-12-08T01:11:19.578Z,3.70
2022-12-08T01:13:46.935Z,4.30
2022-12-08T01:16:25.487Z,4.13
2022-12-08T01:18:52.310Z,4.00
2022-12-08T01:21:19.489Z,3.60
2022-12-08T01:23:46.318Z,4.07
2022-12-08T01:26:15.002Z,4.00
2022-12-08T01:28:42.143Z,4.03
2022-12-08T01:31:14.200Z,3.47
2022-12-08T01:33:41.296Z,3.63
2022-12-08T01:36:10.293Z,3.80
2022-12-08T01:38:36.939Z,3.73
2022-12-08T01:41:03.598Z,3.70
2022-12-08T01:44:08.314Z,3.60
2022-12-08T01:46:38.495Z,3.20
2022-12-08T01:49:12.281Z,3.73
2022-12-08T01:51:47.546Z,4.13
2022-12-08T01:54:15.249Z,3.50
2022-12-08T01:56:43.535Z,3.60
2022-12-08T01:59:11.651Z,3.73
2022-12-08T02:01:38.905Z,3.70
2022-12-08T02:04:06.672Z,3.90
2022-12-08T02:06:36.893Z,3.30
2022-12-08T02:09:05.421Z,3.27
2022-12-08T02:11:32.255Z,3.20
2022-12-08T02:14:01.880Z,3.40
2022-12-08T02:17:03.126Z,3.83
2022-12-08T02:19:51.716Z,3.20
2022-12-08T02:22:54.563Z,3.47
2022-12-08T02:25:41.963Z,3.30
2022-12-08T02:28:39.604Z,3.30
2022-12-08T02:31:13.740Z,3.10
2022-12-08T02:34:06.989Z,3.73
2022-12-08T02:36:48.590Z,3.50
2022-12-08T02:39:50.902Z,3.50
2022-12-08T02:42:26.860Z,3.60
2022-12-08T02:45:00.906Z,3.53
2022-12-08T02:47:29.163Z,3.23
2022-12-08T02:49:57.126Z,3.20
2022-12-08T02:52:23.815Z,3.03
2022-12-08T02:54:59.412Z,3.27
2022-12-08T02:58:00.256Z,2.97
2022-12-08T03:00:34.241Z,3.57
2022-12-08T03:03:27.873Z,3.43
2022-12-08T03:06:30.886Z,3.47
2022-12-08T03:09:04.459Z,3.20
2022-12-08T03:11:38.424Z,3.30
2022-12-08T03:14:07.528Z,3.23
2022-12-08T03:16:38.221Z,3.47
2022-12-08T03:19:22.337Z,2.93
2022-12-08T03:21:52.935Z,3.10
2022-12-08T03:24:23.091Z,3.10
2022-12-08T03:26:58.703Z,3.40
2022-12-08T03:29:26.093Z,3.20
2022-12-08T03:31:57.491Z,3.57
2022-12-08T03:34:28.075Z,3.07
2022-12-08T03:36:54.900Z,3.17
2022-12-08T03:39:21.616Z,3.57
2022-12-08T03:41:48.412Z,3.13
2022-12-08T03:44:15.015Z,3.37
2022-12-08T03:46:41.721Z,3.17
2022-12-08T03:49:08.359Z,3.27
2022-12-08T03:51:35.123Z,3.23
2022-12-08T03:54:01.731Z,2.77
2022-12-08T03:56:31.192Z,3.20
2022-12-08T03:58:58.500Z,3.17
2022-12-08T04:01:25.489Z,3.37
2022-12-08T04:03:52.300Z,3.33
2022-12-08T04:06:20.514Z,3.17
2022-12-08T04:08:47.477Z,2.93
2022-12-08T04:11:14.245Z,3.27
2022-12-08T04:13:43.722Z,3.03
2022-12-08T04:16:20.203Z,2.73
2022-12-08T04:18:47.314Z,3.50
2022-12-08T04:21:14.469Z,2.87
2022-12-08T04:23:41.590Z,2.93
2022-12-08T04:26:08.875Z,3.23
2022-12-08T04:28:35.846Z,3.10
2022-12-08T04:31:02.605Z,2.90
2022-12-08T04:33:29.326Z,2.37
2022-12-08T04:35:55.944Z,2.70
2022-12-08T04:38:22.785Z,2.97
2022-12-08T04:40:49.519Z,3.03
2022-12-08T04:43:16.915Z,2.83
2022-12-08T04:45:43.578Z,2.73
2022-12-08T04:48:13.189Z,3.00
2022-12-08T04:50:42.058Z,2.97
2022-12-08T04:53:10.097Z,3.27
2022-12-08T04:55:43.658Z,2.77
2022-12-08T04:58:13.796Z,2.80
2022-12-08T05:00:40.845Z,3.30
2022-12-08T05:03:07.702Z,3.03
2022-12-08T05:05:34.375Z,2.60
2022-12-08T05:08:01.114Z,2.53
2022-12-08T05:10:27.891Z,2.60
2022-12-08T05:12:54.619Z,2.80
2022-12-08T05:15:21.337Z,2.87
2022-12-08T05:17:47.991Z,2.60
2022-12-08T05:20:14.709Z,2.70
2022-12-08T05:23:03.539Z,3.00
2022-12-08T05:25:30.181Z,2.53
2022-12-08T05:28:17.634Z,3.17
2022-12-08T05:30:43.546Z,2.33
2022-12-08T05:33:11.496Z,2.87
2022-12-08T05:35:38.163Z,2.70
2022-12-08T05:38:05.963Z,2.63
2022-12-08T05:40:32.681Z,2.73
2022-12-08T05:42:59.268Z,2.43
2022-12-08T05:45:25.911Z,2.50
2022-12-08T05:47:53.898Z,2.70
2022-12-08T05:50:20.561Z,3.10
2022-12-08T05:52:47.224Z,2.80
2022-12-08T05:55:13.814Z,2.70
2022-12-08T05:57:40.433Z,2.40
2022-12-08T06:00:08.160Z,2.90
2022-12-08T06:02:35.683Z,2.70
2022-12-08T06:05:02.494Z,2.80
2022-12-08T06:07:29.134Z,2.80
2022-12-08T06:09:55.797Z,3.20
2022-12-08T06:12:22.549Z,2.40
2022-12-08T06:14:49.246Z,2.60
2022-12-08T06:17:15.930Z,2.60
2022-12-08T06:19:42.527Z,2.20
2022-12-08T06:22:09.210Z,2.60
2022-12-08T06:24:35.894Z,2.47
2022-12-08T06:27:02.527Z,2.37
2022-12-08T06:29:29.183Z,2.50
2022-12-08T06:31:55.830Z,2.60
2022-12-08T06:34:22.537Z,2.50
2022-12-08T06:36:49.177Z,2.40
2022-12-08T06:39:15.846Z,2.50
2022-12-08T06:42:01.038Z,3.00
2022-12-08T06:44:27.733Z,2.67
2022-12-08T06:46:54.416Z,2.93
2022-12-08T06:49:21.122Z,2.60
2022-12-08T06:51:47.767Z,3.07
2022-12-08T06:54:14.352Z,2.93
2022-12-08T06:56:40.975Z,2.60
2022-12-08T06:59:07.512Z,2.87
2022-12-08T07:01:34.105Z,3.17
2022-12-08T07:04:00.731Z,2.80
2022-12-08T07:06:27.410Z,2.30
2022-12-08T07:08:54.028Z,3.33
2022-12-08T07:11:22.210Z,3.73
2022-12-08T07:13:49.841Z,3.43
2022-12-08T07:16:16.568Z,3.30
2022-12-08T07:18:43.896Z,3.37
2022-12-08T07:21:13.266Z,3.17
2022-12-08T07:23:39.881Z,3.00
2022-12-08T07:26:09.752Z,3.10
2022-12-08T07:28:38.081Z,3.37
2022-12-08T07:31:06.186Z,2.97
2022-12-08T07:33:33.855Z,2.70
2022-12-08T07:36:03.290Z,3.47
2022-12-08T07:38:30.613Z,3.00
2022-12-08T07:40:57.285Z,3.73
2022-12-08T07:43:23.862Z,3.03
2022-12-08T07:45:51.025Z,3.33
2022-12-08T07:48:18.467Z,2.67
2022-12-08T07:50:45.746Z,2.67
2022-12-08T07:53:12.808Z,2.83
2022-12-08T07:55:41.091Z,2.77
2022-12-08T07:58:08.432Z,2.90
2022-12-08T08:00:35.480Z,2.80
2022-12-08T08:03:02.645Z,3.20
2022-12-08T08:05:29.865Z,2.83
2022-12-08T08:07:56.493Z,2.80
2022-12-08T08:10:23.138Z,2.60
2022-12-08T08:12:49.744Z,2.90
2022-12-08T08:15:17.357Z,3.10
2022-12-08T08:17:43.989Z,3.73
2022-12-08T08:20:11.226Z,3.40
2022-12-08T08:22:37.818Z,2.47
2022-12-08T08:25:05.610Z,3.10
2022-12-08T08:27:32.245Z,3.27
2022-12-08T08:29:58.858Z,2.83
2022-12-08T08:32:25.464Z,3.17
2022-12-08T08:34:52.110Z,3.60
2022-12-08T08:37:18.708Z,2.90
2022-12-08T08:39:45.357Z,3.23
2022-12-08T08:42:11.956Z,2.97
2022-12-08T08:44:38.870Z,2.73
2022-12-08T08:47:05.440Z,3.03
2022-12-08T08:49:31.957Z,2.70
2022-12-08T08:51:58.538Z,2.80
2022-12-08T08:54:25.082Z,3.03
2022-12-08T08:56:52.603Z,2.67
2022-12-08T08:59:19.196Z,2.77
2022-12-08T09:01:45.894Z,2.97
2022-12-08T09:04:12.590Z,2.80
2022-12-08T09:06:39.280Z,2.90
2022-12-08T09:09:06.137Z,2.50
2022-12-08T09:11:33.342Z,2.77
2022-12-08T09:13:59.889Z,3.03
2022-12-08T09:16:26.543Z,3.17
2022-12-08T09:18:53.744Z,2.60
2022-12-08T09:21:23.391Z,2.70
2022-12-08T09:23:58.166Z,2.87
2022-12-08T09:26:26.323Z,2.90
2022-12-08T09:28:54.555Z,3.17
2022-12-08T09:31:22.258Z,2.73
2022-12-08T09:33:51.471Z,2.57
2022-12-08T09:36:18.340Z,2.50
2022-12-08T09:38:46.521Z,2.87
2022-12-08T09:41:20.213Z,2.50
2022-12-08T09:44:01.106Z,2.27
2022-12-08T09:46:31.253Z,2.53
2022-12-08T09:49:00.149Z,2.60
2022-12-08T09:51:32.993Z,2.73
2022-12-08T09:54:12.485Z,2.80
2022-12-08T09:56:39.731Z,2.13
2022-12-08T09:59:21.881Z,2.30
2022-12-08T10:01:49.013Z,2.37
2022-12-08T10:04:33.799Z,2.30
2022-12-08T10:07:35.322Z,2.90
2022-12-08T10:10:34.583Z,3.00
2022-12-08T10:13:06.696Z,2.17
2022-12-08T10:15:54.918Z,2.47
2022-12-08T10:18:27.509Z,3.10
2022-12-08T10:20:58.370Z,2.13
2022-12-08T10:23:36.321Z,2.23
2022-12-08T10:26:11.145Z,2.30
2022-12-08T10:28:43.039Z,3.20
2022-12-08T10:31:23.457Z,2.73
2022-12-08T10:34:00.528Z,2.43
2022-12-08T10:36:47.154Z,2.20
2022-12-08T10:39:34.470Z,2.23
2022-12-08T10:42:14.282Z,2.00
2022-12-08T10:44:57.831Z,2.13
2022-12-08T10:47:26.630Z,3.00
2022-12-08T10:50:17.653Z,2.57
2022-12-08T10:52:45.322Z,3.00
2022-12-08T10:55:20.633Z,2.70
2022-12-08T10:57:49.041Z,2.83
2022-12-08T11:00:26.937Z,3.30
2022-12-08T11:02:58.258Z,2.57
2022-12-08T11:05:28.997Z,3.17
2022-12-08T11:07:56.426Z,2.90
2022-12-08T11:10:32.836Z,2.97
2022-12-08T11:13:05.823Z,2.47
2022-12-08T11:15:37.314Z,3.00
2022-12-08T11:18:09.549Z,2.87
2022-12-08T11:20:41.736Z,3.20
2022-12-08T11:23:22.360Z,2.53
2022-12-08T11:25:50.419Z,2.87
2022-12-08T11:28:22.610Z,3.17
2022-12-08T11:30:58.578Z,2.67
2022-12-08T11:33:27.315Z,2.50
2022-12-08T11:36:04.751Z,2.60
2022-12-08T11:38:33.233Z,2.60
2022-12-08T11:41:14.194Z,2.73
2022-12-08T11:43:42.516Z,3.20
2022-12-08T11:46:14.688Z,2.57
2022-12-08T11:49:04.361Z,2.90
2022-12-08T11:51:39.403Z,2.70
2022-12-08T11:54:17.165Z,2.77
2022-12-08T11:57:13.055Z,2.47
2022-12-08T11:59:46.251Z,2.20
2022-12-08T12:02:31.710Z,2.43
2022-12-08T12:05:01.243Z,2.50
2022-12-08T12:07:55.485Z,2.37
2022-12-08T12:10:29.376Z,2.63
2022-12-08T12:13:09.816Z,3.00
2022-12-08T12:16:21.131Z,2.07
2022-12-08T12:18:51.824Z,2.70
2022-12-08T12:21:34.791Z,2.80
2022-12-08T12:24:07.087Z,2.40
2022-12-08T12:26:37.730Z,2.30
2022-12-08T12:29:16.078Z,2.70
2022-12-08T12:31:47.242Z,2.67
2022-12-08T12:34:29.979Z,2.47
2022-12-08T12:37:12.520Z,2.20
2022-12-08T13:00:45.792Z,2.30
2022-12-08T13:03:16.654Z,2.47
2022-12-08T13:05:52.778Z,2.50
2022-12-08T13:08:21.251Z,2.33
2022-12-08T13:11:00.630Z,2.53
2022-12-08T13:13:28.270Z,2.77
2022-12-08T13:16:18.549Z,2.60
2022-12-08T13:18:57.469Z,3.20
2022-12-08T13:21:31.544Z,2.53
2022-12-08T13:24:10.213Z,2.80
2022-12-08T13:27:02.854Z,2.30
2022-12-08T13:29:30.675Z,2.57
2022-12-08T13:32:09.644Z,2.10
2022-12-08T13:34:49.851Z,2.83
2022-12-08T13:37:33.676Z,2.80
2022-12-08T13:40:23.883Z,2.40
2022-12-08T13:43:16.499Z,2.00
2022-12-08T13:50:15.595Z,2.40
2022-12-08T13:57:30.609Z,2.30
2022-12-08T14:00:20.673Z,2.43
2022-12-08T14:02:49.726Z,2.57
2022-12-08T14:05:21.664Z,2.40
2022-12-08T14:07:56.041Z,2.30
2022-12-08T14:10:29.231Z,2.50
2022-12-08T14:13:02.442Z,2.33
2022-12-08T14:15:37.213Z,2.70
2022-12-08T14:18:05.715Z,2.23
2022-12-08T14:20:51.722Z,2.20
2022-12-08T14:23:21.065Z,2.37
2022-12-08T14:25:48.270Z,2.50
2022-12-08T14:28:15.027Z,2.60
2022-12-08T14:30:41.877Z,2.40
2022-12-08T14:33:14.223Z,2.37
2022-12-08T14:35:40.929Z,2.57
2022-12-08T14:38:16.237Z,2.23
2022-12-08T14:40:45.272Z,2.43
2022-12-08T14:43:14.418Z,2.47
2022-12-08T14:45:41.151Z,2.33
2022-12-08T14:48:42.576Z,2.50
2022-12-08T14:51:21.215Z,2.67
2022-12-08T14:53:47.794Z,1.90
2022-12-08T14:56:23.072Z,2.70
2022-12-08T14:59:02.520Z,2.17
2022-12-08T15:01:29.793Z,2.43
2022-12-08T15:04:02.533Z,2.00
2022-12-08T15:06:29.213Z,2.50
2022-12-08T15:09:01.515Z,1.97
2022-12-08T15:11:33.985Z,2.20
2022-12-08T15:14:00.689Z,1.80
2022-12-08T15:16:39.974Z,2.20
2022-12-08T15:19:16.883Z,2.43
2022-12-08T15:21:44.223Z,1.87
2022-12-08T15:24:13.251Z,1.93
2022-12-08T15:26:43.611Z,2.07
2022-12-08T15:29:14.242Z,2.20
2022-12-08T15:31:41.015Z,1.77
2022-12-08T15:34:07.743Z,1.80
2022-12-08T15:36:34.331Z,2.20
2022-12-08T15:39:01.143Z,1.83
2022-12-08T15:41:27.690Z,2.33
2022-12-08T15:43:54.209Z,1.90
2022-12-08T15:46:20.787Z,2.00
2022-12-08T15:48:47.406Z,2.37
2022-12-08T15:51:13.940Z,1.93
2022-12-08T15:53:40.628Z,2.10
2022-12-08T15:58:56.498Z,2.00
2022-12-08T16:01:24.431Z,2.00
2022-12-08T16:09:32.296Z,1.93
2022-12-08T16:12:17.822Z,2.30
2022-12-08T16:15:47.184Z,1.97
2022-12-08T16:17:31.587Z,2.10
2022-12-08T16:19:58.824Z,2.40
2022-12-08T16:25:19.806Z,2.13
2022-12-08T16:28:23.259Z,2.27
2022-12-08T16:30:35.158Z,2.07
2022-12-08T16:33:01.785Z,2.27
2022-12-08T16:35:28.542Z,2.20
2022-12-08T16:37:55.231Z,2.10
2022-12-08T16:40:21.951Z,2.10
2022-12-08T16:42:50.031Z,2.57
2022-12-08T16:45:18.720Z,1.90
2022-12-08T16:47:48.111Z,1.83
2022-12-08T16:50:35.067Z,2.00
2022-12-08T16:53:07.271Z,1.83
2022-12-08T16:55:35.028Z,1.73
2022-12-08T16:58:03.413Z,2.10
2022-12-08T17:00:36.482Z,2.00
2022-12-08T17:03:05.179Z,2.07
2022-12-08T17:05:31.936Z,2.00
2022-12-08T17:07:59.293Z,1.70
2022-12-08T17:10:34.255Z,2.10
2022-12-08T17:13:01.690Z,1.90
2022-12-08T17:15:28.586Z,2.10
2022-12-08T17:17:55.117Z,2.10
2022-12-08T17:20:24.471Z,2.10
2022-12-08T17:22:53.943Z,2.30
2022-12-08T17:25:20.729Z,2.00
2022-12-08T17:27:47.506Z,2.03
2022-12-08T17:30:15.644Z,2.40
2022-12-08T17:32:43.098Z,1.80
2022-12-08T17:35:10.641Z,1.73
2022-12-08T17:37:37.289Z,1.80
2022-12-08T17:40:04.788Z,1.87
2022-12-08T17:42:31.604Z,1.60
2022-12-08T17:44:58.112Z,1.60
2022-12-08T17:47:24.728Z,2.00
2022-12-08T17:49:51.269Z,2.10
2022-12-08T17:52:17.868Z,1.67
2022-12-08T17:54:44.440Z,1.80
2022-12-08T17:57:11.000Z,1.97
2022-12-08T17:59:37.711Z,2.37
2022-12-08T18:02:04.336Z,1.50
2022-12-08T18:04:31.495Z,1.97
2022-12-08T18:06:59.252Z,2.20
2022-12-08T18:09:25.944Z,1.70
2022-12-08T18:11:52.638Z,2.10
2022-12-08T18:14:19.170Z,2.17
2022-12-08T18:16:47.149Z,1.90
2022-12-08T18:19:14.885Z,2.17
2022-12-08T18:21:42.542Z,1.97
2022-12-08T18:24:15.236Z,1.67
2022-12-08T18:26:41.761Z,2.00
2022-12-08T18:29:08.300Z,2.10
2022-12-08T18:31:34.918Z,2.07
2022-12-08T18:34:01.920Z,2.20
2022-12-08T18:36:28.479Z,2.40
2022-12-08T18:38:55.022Z,2.23
2022-12-08T18:41:25.606Z,2.20
2022-12-08T18:43:53.791Z,2.10
2022-12-08T18:46:20.958Z,2.47
2022-12-08T18:48:49.530Z,2.40
2022-12-08T18:51:19.043Z,2.27
2022-12-08T18:53:46.468Z,2.40
2022-12-08T18:56:26.187Z,1.97
2022-12-08T18:58:56.268Z,2.60
2022-12-08T19:01:25.148Z,2.30
2022-12-08T19:04:20.014Z,2.73
2022-12-08T19:06:40.053Z,2.40
2022-12-08T19:09:08.520Z,2.30
2022-12-08T19:11:35.202Z,2.50
2022-12-08T19:14:01.879Z,2.70
2022-12-08T19:16:28.737Z,2.27
2022-12-08T19:18:55.403Z,2.63
2022-12-08T19:21:23.865Z,2.57
2022-12-08T19:23:52.526Z,2.13
2022-12-08T19:26:19.730Z,2.07
2022-12-08T19:28:46.345Z,2.53
2022-12-08T19:31:13.165Z,2.83
2022-12-08T19:33:40.006Z,2.30
2022-12-08T19:36:08.858Z,2.50
2022-12-08T19:38:55.987Z,2.23
2022-12-08T19:41:41.815Z,2.60
2022-12-08T19:44:38.435Z,3.27
2022-12-08T19:47:05.634Z,2.47
2022-12-08T19:49:32.779Z,2.60
2022-12-08T19:51:59.828Z,2.23
2022-12-08T19:54:26.886Z,12.90
2022-12-08T19:56:53.682Z,12.10
2022-12-08T19:59:20.354Z,15.17
2022-12-08T20:01:48.327Z,11.37
2022-12-08T20:04:16.415Z,9.73
2022-12-08T20:06:43.911Z,10.47
2022-12-08T20:09:11.522Z,9.53
2022-12-08T20:11:39.114Z,11.00
2022-12-08T20:14:06.540Z,9.40
2022-12-08T20:16:33.759Z,8.90
2022-12-08T20:19:01.217Z,9.17
2022-12-08T20:21:28.329Z,8.30
2022-12-08T20:23:56.121Z,7.30
2022-12-08T20:26:23.317Z,7.83
2022-12-08T20:28:50.570Z,7.97
2022-12-08T20:31:22.981Z,6.93
2022-12-08T20:33:49.825Z,8.03
2022-12-08T20:36:18.624Z,7.83
2022-12-08T20:38:46.167Z,7.60
2022-12-08T20:41:13.127Z,7.47
2022-12-08T20:43:39.696Z,7.03
2022-12-08T20:46:07.653Z,7.67
2022-12-08T20:48:34.842Z,6.30
2022-12-08T20:51:02.160Z,6.83
2022-12-08T20:53:29.284Z,7.43
2022-12-08T20:55:56.341Z,7.20
2022-12-08T20:58:23.528Z,6.70
2022-12-08T21:00:50.288Z,6.97
2022-12-08T21:03:18.675Z,7.43
2022-12-08T21:05:52.517Z,6.80
2022-12-08T21:08:19.989Z,6.77
2022-12-08T21:10:53.541Z,5.77
2022-12-08T21:13:20.320Z,6.47
2022-12-08T21:15:47.799Z,6.73
2022-12-08T21:18:15.952Z,6.80
2022-12-08T21:20:43.119Z,6.33
2022-12-08T21:23:10.091Z,6.47
2022-12-08T21:25:43.941Z,6.80
2022-12-08T21:28:11.175Z,6.13
2022-12-08T21:30:41.207Z,6.07
2022-12-08T21:33:07.911Z,6.00
2022-12-08T21:35:34.813Z,6.27
2022-12-08T21:38:01.562Z,6.00
2022-12-08T21:40:28.268Z,6.27
2022-12-08T21:42:54.858Z,6.03
2022-12-08T21:45:21.958Z,6.30
2022-12-08T21:47:50.108Z,6.23
2022-12-08T21:50:17.723Z,5.33
2022-12-08T21:52:46.975Z,5.67
2022-12-08T21:55:15.693Z,6.03
2022-12-08T21:57:42.514Z,6.83
2022-12-08T22:00:13.277Z,5.97
2022-12-08T22:02:40.108Z,5.80
2022-12-08T22:05:07.220Z,6.90
2022-12-08T22:07:33.820Z,5.70
2022-12-08T22:10:00.775Z,5.27
2022-12-08T22:12:27.499Z,5.73
2022-12-08T22:14:54.106Z,5.47
2022-12-08T22:17:20.776Z,5.77
2022-12-08T22:19:47.585Z,5.23
2022-12-08T22:22:14.139Z,5.10
2022-12-08T22:24:40.671Z,6.03
2022-12-08T22:27:07.474Z,5.73
2022-12-08T22:29:34.013Z,5.97
2022-12-08T22:32:00.817Z,5.30
2022-12-08T22:34:27.446Z,5.63
2022-12-08T22:36:53.968Z,5.90
2022-12-08T22:39:20.581Z,5.80
2022-12-08T22:41:47.200Z,5.70
2022-12-08T22:44:15.651Z,5.23
2022-12-08T22:46:42.259Z,5.00
2022-12-08T22:49:08.918Z,5.47
2022-12-08T22:51:36.672Z,5.83
2022-12-08T22:54:04.391Z,5.23
2022-12-08T22:56:31.147Z,5.40
2022-12-08T22:58:58.501Z,5.57
2022-12-08T23:01:28.961Z,5.30
2022-12-08T23:03:56.858Z,5.17
2022-12-08T23:06:25.367Z,4.93
2022-12-08T23:08:52.912Z,5.37
2022-12-08T23:11:22.615Z,5.13
2022-12-08T23:13:49.271Z,5.00
2022-12-08T23:16:16.317Z,5.30
2022-12-08T23:18:45.077Z,5.10
2022-12-08T23:21:14.689Z,4.73
2022-12-08T23:23:42.129Z,4.50
2022-12-08T23:26:20.945Z,5.53
2022-12-08T23:28:48.145Z,4.97
2022-12-08T23:31:14.882Z,5.20
2022-12-08T23:33:42.162Z,5.73
2022-12-08T23:36:09.785Z,4.77
2022-12-08T23:38:36.806Z,5.27
2022-12-08T23:41:05.375Z,5.57
2022-12-08T23:43:32.858Z,4.90
2022-12-08T23:45:59.906Z,5.10
2022-12-08T23:48:27.908Z,5.70
2022-12-08T23:50:54.786Z,4.80
2022-12-08T23:53:21.649Z,5.53
2022-12-08T23:55:48.388Z,4.87
2022-12-08T23:58:14.976Z,4.57
